sensor_id;sensor_type;location;lat;lon;timestamp;temperature;humidity
83553;DHT22;73510;50.866;5.420;2024-01-11T00:00:28;-4.50;63.90
83553;DHT22;73510;50.866;5.420;2024-01-11T00:02:54;-4.50;64.30
83553;DHT22;73510;50.866;5.420;2024-01-11T00:05:20;-4.50;64.40
83553;DHT22;73510;50.866;5.420;2024-01-11T00:07:47;-4.50;64.60
83553;DHT22;73510;50.866;5.420;2024-01-11T00:10:13;-4.50;64.50
83553;DHT22;73510;50.866;5.420;2024-01-11T00:12:39;-4.60;64.20
83553;DHT22;73510;50.866;5.420;2024-01-11T00:15:05;-4.60;64.40
83553;DHT22;73510;50.866;5.420;2024-01-11T00:17:31;-4.60;64.50
83553;DHT22;73510;50.866;5.420;2024-01-11T00:19:56;-4.60;64.30
83553;DHT22;73510;50.866;5.420;2024-01-11T00:22:22;-4.60;64.40
83553;DHT22;73510;50.866;5.420;2024-01-11T00:24:48;-4.60;64.50
83553;DHT22;73510;50.866;5.420;2024-01-11T00:27:14;-4.60;64.50
83553;DHT22;73510;50.866;5.420;2024-01-11T00:29:39;-4.60;64.70
83553;DHT22;73510;50.866;5.420;2024-01-11T00:32:05;-4.60;64.30
83553;DHT22;73510;50.866;5.420;2024-01-11T00:34:31;-4.60;64.20
83553;DHT22;73510;50.866;5.420;2024-01-11T00:36:56;-4.60;64.20
83553;DHT22;73510;50.866;5.420;2024-01-11T00:39:22;-4.60;64.10
83553;DHT22;73510;50.866;5.420;2024-01-11T00:41:48;-4.60;64.20
83553;DHT22;73510;50.866;5.420;2024-01-11T00:44:13;-4.70;64.30
83553;DHT22;73510;50.866;5.420;2024-01-11T00:46:39;-4.70;64.10
83553;DHT22;73510;50.866;5.420;2024-01-11T00:49:06;-4.80;64.20
83553;DHT22;73510;50.866;5.420;2024-01-11T00:51:32;-4.80;64.20
83553;DHT22;73510;50.866;5.420;2024-01-11T00:53:57;-4.80;64.40
83553;DHT22;73510;50.866;5.420;2024-01-11T00:56:23;-4.80;64.30
83553;DHT22;73510;50.866;5.420;2024-01-11T00:58:49;-4.80;64.50
83553;DHT22;73510;50.866;5.420;2024-01-11T01:01:14;-4.80;64.40
83553;DHT22;73510;50.866;5.420;2024-01-11T01:03:40;-4.90;64.30
83553;DHT22;73510;50.866;5.420;2024-01-11T01:06:06;-4.90;64.30
83553;DHT22;73510;50.866;5.420;2024-01-11T01:08:32;-4.90;64.60
83553;DHT22;73510;50.866;5.420;2024-01-11T01:10:58;-4.90;64.80
83553;DHT22;73510;50.866;5.420;2024-01-11T01:13:23;-4.90;64.90
83553;DHT22;73510;50.866;5.420;2024-01-11T01:15:49;-4.90;64.80
83553;DHT22;73510;50.866;5.420;2024-01-11T01:18:15;-4.90;64.80
83553;DHT22;73510;50.866;5.420;2024-01-11T01:20:40;-4.90;64.70
83553;DHT22;73510;50.866;5.420;2024-01-11T01:23:06;-4.90;64.30
83553;DHT22;73510;50.866;5.420;2024-01-11T01:25:32;-4.90;64.30
83553;DHT22;73510;50.866;5.420;2024-01-11T01:28:00;-4.90;64.20
83553;DHT22;73510;50.866;5.420;2024-01-11T01:30:27;-4.90;64.20
83553;DHT22;73510;50.866;5.420;2024-01-11T01:32:53;-5.00;64.30
83553;DHT22;73510;50.866;5.420;2024-01-11T01:35:18;-5.00;64.40
83553;DHT22;73510;50.866;5.420;2024-01-11T01:37:44;-5.00;64.30
83553;DHT22;73510;50.866;5.420;2024-01-11T01:40:11;-5.00;64.70
83553;DHT22;73510;50.866;5.420;2024-01-11T01:42:42;-5.00;64.60
83553;DHT22;73510;50.866;5.420;2024-01-11T01:45:09;-5.00;64.50
83553;DHT22;73510;50.866;5.420;2024-01-11T01:47:36;-5.00;64.30
83553;DHT22;73510;50.866;5.420;2024-01-11T01:50:02;-5.00;64.30
83553;DHT22;73510;50.866;5.420;2024-01-11T01:52:29;-5.00;64.70
83553;DHT22;73510;50.866;5.420;2024-01-11T01:54:56;-5.00;64.30
83553;DHT22;73510;50.866;5.420;2024-01-11T01:57:23;-5.00;64.20
83553;DHT22;73510;50.866;5.420;2024-01-11T01:59:51;-5.00;64.30
83553;DHT22;73510;50.866;5.420;2024-01-11T02:02:19;-5.10;64.50
83553;DHT22;73510;50.866;5.420;2024-01-11T02:04:45;-5.00;64.60
83553;DHT22;73510;50.866;5.420;2024-01-11T02:07:11;-5.00;64.30
83553;DHT22;73510;50.866;5.420;2024-01-11T02:09:37;-5.10;64.20
83553;DHT22;73510;50.866;5.420;2024-01-11T02:12:03;-5.10;64.30
83553;DHT22;73510;50.866;5.420;2024-01-11T02:14:30;-5.10;64.40
83553;DHT22;73510;50.866;5.420;2024-01-11T02:16:55;-5.10;64.40
83553;DHT22;73510;50.866;5.420;2024-01-11T02:19:21;-5.10;64.40
83553;DHT22;73510;50.866;5.420;2024-01-11T02:21:49;-5.10;64.30
83553;DHT22;73510;50.866;5.420;2024-01-11T02:24:15;-5.10;64.10
83553;DHT22;73510;50.866;5.420;2024-01-11T02:27:04;-5.10;64.00
83553;DHT22;73510;50.866;5.420;2024-01-11T02:29:30;-5.20;64.00
83553;DHT22;73510;50.866;5.420;2024-01-11T02:31:57;-5.20;64.00
83553;DHT22;73510;50.866;5.420;2024-01-11T02:34:25;-5.20;64.20
83553;DHT22;73510;50.866;5.420;2024-01-11T02:36:53;-5.20;64.20
83553;DHT22;73510;50.866;5.420;2024-01-11T02:39:19;-5.20;64.10
83553;DHT22;73510;50.866;5.420;2024-01-11T02:41:47;-5.20;64.20
83553;DHT22;73510;50.866;5.420;2024-01-11T02:44:12;-5.20;64.10
83553;DHT22;73510;50.866;5.420;2024-01-11T02:46:38;-5.20;64.10
83553;DHT22;73510;50.866;5.420;2024-01-11T02:49:04;-5.20;64.20
83553;DHT22;73510;50.866;5.420;2024-01-11T02:51:29;-5.20;64.30
83553;DHT22;73510;50.866;5.420;2024-01-11T02:53:55;-5.20;64.40
83553;DHT22;73510;50.866;5.420;2024-01-11T02:56:21;-5.20;64.20
83553;DHT22;73510;50.866;5.420;2024-01-11T02:58:46;-5.20;64.50
83553;DHT22;73510;50.866;5.420;2024-01-11T03:01:12;-5.20;64.50
83553;DHT22;73510;50.866;5.420;2024-01-11T03:03:38;-5.20;64.50
83553;DHT22;73510;50.866;5.420;2024-01-11T03:06:04;-5.20;64.40
83553;DHT22;73510;50.866;5.420;2024-01-11T03:08:31;-5.20;64.30
83553;DHT22;73510;50.866;5.420;2024-01-11T03:10:57;-5.20;64.20
83553;DHT22;73510;50.866;5.420;2024-01-11T03:13:23;-5.20;64.40
83553;DHT22;73510;50.866;5.420;2024-01-11T03:15:49;-5.20;64.40
83553;DHT22;73510;50.866;5.420;2024-01-11T03:18:14;-5.20;64.50
83553;DHT22;73510;50.866;5.420;2024-01-11T03:20:40;-5.20;64.40
83553;DHT22;73510;50.866;5.420;2024-01-11T03:23:05;-5.20;64.40
83553;DHT22;73510;50.866;5.420;2024-01-11T03:25:31;-5.20;64.30
83553;DHT22;73510;50.866;5.420;2024-01-11T03:27:58;-5.20;64.40
83553;DHT22;73510;50.866;5.420;2024-01-11T03:30:24;-5.20;64.60
83553;DHT22;73510;50.866;5.420;2024-01-11T03:32:50;-5.20;64.50
83553;DHT22;73510;50.866;5.420;2024-01-11T03:35:17;-5.20;64.60
83553;DHT22;73510;50.866;5.420;2024-01-11T03:37:43;-5.20;64.40
83553;DHT22;73510;50.866;5.420;2024-01-11T03:40:09;-5.20;64.30
83553;DHT22;73510;50.866;5.420;2024-01-11T03:42:34;-5.20;64.30
83553;DHT22;73510;50.866;5.420;2024-01-11T03:45:01;-5.20;64.50
83553;DHT22;73510;50.866;5.420;2024-01-11T03:47:26;-5.20;64.50
83553;DHT22;73510;50.866;5.420;2024-01-11T03:49:52;-5.20;64.30
83553;DHT22;73510;50.866;5.420;2024-01-11T03:52:18;-5.20;64.30
83553;DHT22;73510;50.866;5.420;2024-01-11T03:54:43;-5.20;64.30
83553;DHT22;73510;50.866;5.420;2024-01-11T03:57:09;-5.20;64.50
83553;DHT22;73510;50.866;5.420;2024-01-11T03:59:35;-5.20;64.70
83553;DHT22;73510;50.866;5.420;2024-01-11T04:02:00;-5.20;64.70
83553;DHT22;73510;50.866;5.420;2024-01-11T04:04:26;-5.20;64.70
83553;DHT22;73510;50.866;5.420;2024-01-11T04:06:52;-5.20;64.50
83553;DHT22;73510;50.866;5.420;2024-01-11T04:09:18;-5.20;64.70
83553;DHT22;73510;50.866;5.420;2024-01-11T04:11:43;-5.20;64.60
83553;DHT22;73510;50.866;5.420;2024-01-11T04:14:09;-5.30;64.70
83553;DHT22;73510;50.866;5.420;2024-01-11T04:16:40;-5.30;64.60
83553;DHT22;73510;50.866;5.420;2024-01-11T04:19:06;-5.40;64.80
83553;DHT22;73510;50.866;5.420;2024-01-11T04:21:32;-5.30;64.80
83553;DHT22;73510;50.866;5.420;2024-01-11T04:23:58;-5.40;64.70
83553;DHT22;73510;50.866;5.420;2024-01-11T04:26:24;-5.40;64.90
83553;DHT22;73510;50.866;5.420;2024-01-11T04:28:51;-5.40;65.00
83553;DHT22;73510;50.866;5.420;2024-01-11T04:31:17;-5.40;64.80
83553;DHT22;73510;50.866;5.420;2024-01-11T04:33:43;-5.40;64.70
83553;DHT22;73510;50.866;5.420;2024-01-11T04:36:10;-5.40;64.70
83553;DHT22;73510;50.866;5.420;2024-01-11T04:38:36;-5.40;64.80
83553;DHT22;73510;50.866;5.420;2024-01-11T04:41:07;-5.40;64.60
83553;DHT22;73510;50.866;5.420;2024-01-11T04:43:32;-5.40;64.80
83553;DHT22;73510;50.866;5.420;2024-01-11T04:45:58;-5.40;64.80
83553;DHT22;73510;50.866;5.420;2024-01-11T04:48:24;-5.40;64.70
83553;DHT22;73510;50.866;5.420;2024-01-11T04:50:49;-5.40;64.60
83553;DHT22;73510;50.866;5.420;2024-01-11T04:53:15;-5.40;64.70
83553;DHT22;73510;50.866;5.420;2024-01-11T04:55:40;-5.40;64.70
83553;DHT22;73510;50.866;5.420;2024-01-11T04:58:06;-5.40;65.00
83553;DHT22;73510;50.866;5.420;2024-01-11T05:00:32;-5.40;64.80
83553;DHT22;73510;50.866;5.420;2024-01-11T05:02:57;-5.40;65.20
83553;DHT22;73510;50.866;5.420;2024-01-11T05:05:23;-5.40;65.20
83553;DHT22;73510;50.866;5.420;2024-01-11T05:07:49;-5.40;65.20
83553;DHT22;73510;50.866;5.420;2024-01-11T05:10:14;-5.40;65.10
83553;DHT22;73510;50.866;5.420;2024-01-11T05:12:40;-5.50;65.30
83553;DHT22;73510;50.866;5.420;2024-01-11T05:15:06;-5.40;65.00
83553;DHT22;73510;50.866;5.420;2024-01-11T05:17:33;-5.50;65.10
83553;DHT22;73510;50.866;5.420;2024-01-11T05:19:59;-5.50;65.10
83553;DHT22;73510;50.866;5.420;2024-01-11T05:22:24;-5.50;65.00
83553;DHT22;73510;50.866;5.420;2024-01-11T05:24:50;-5.60;65.00
83553;DHT22;73510;50.866;5.420;2024-01-11T05:27:16;-5.50;65.20
83553;DHT22;73510;50.866;5.420;2024-01-11T05:29:42;-5.60;65.20
83553;DHT22;73510;50.866;5.420;2024-01-11T05:32:07;-5.60;65.30
83553;DHT22;73510;50.866;5.420;2024-01-11T05:34:33;-5.50;65.30
83553;DHT22;73510;50.866;5.420;2024-01-11T05:36:59;-5.50;65.20
83553;DHT22;73510;50.866;5.420;2024-01-11T05:39:24;-5.50;65.10
83553;DHT22;73510;50.866;5.420;2024-01-11T05:41:50;-5.50;65.30
83553;DHT22;73510;50.866;5.420;2024-01-11T05:44:16;-5.50;65.10
83553;DHT22;73510;50.866;5.420;2024-01-11T05:46:42;-5.50;65.00
83553;DHT22;73510;50.866;5.420;2024-01-11T05:49:07;-5.60;65.30
83553;DHT22;73510;50.866;5.420;2024-01-11T05:51:33;-5.60;65.30
83553;DHT22;73510;50.866;5.420;2024-01-11T05:53:59;-5.60;65.30
83553;DHT22;73510;50.866;5.420;2024-01-11T05:56:24;-5.60;65.70
83553;DHT22;73510;50.866;5.420;2024-01-11T05:58:50;-5.60;65.50
83553;DHT22;73510;50.866;5.420;2024-01-11T06:01:16;-5.60;65.30
83553;DHT22;73510;50.866;5.420;2024-01-11T06:03:42;-5.60;65.20
83553;DHT22;73510;50.866;5.420;2024-01-11T06:06:07;-5.60;65.30
83553;DHT22;73510;50.866;5.420;2024-01-11T06:08:33;-5.60;65.30
83553;DHT22;73510;50.866;5.420;2024-01-11T06:10:59;-5.60;65.40
83553;DHT22;73510;50.866;5.420;2024-01-11T06:13:24;-5.60;65.50
83553;DHT22;73510;50.866;5.420;2024-01-11T06:15:50;-5.60;65.50
83553;DHT22;73510;50.866;5.420;2024-01-11T06:18:16;-5.60;65.50
83553;DHT22;73510;50.866;5.420;2024-01-11T06:20:42;-5.60;65.50
83553;DHT22;73510;50.866;5.420;2024-01-11T06:23:07;-5.70;65.60
83553;DHT22;73510;50.866;5.420;2024-01-11T06:25:33;-5.60;65.50
83553;DHT22;73510;50.866;5.420;2024-01-11T06:27:59;-5.60;65.30
83553;DHT22;73510;50.866;5.420;2024-01-11T06:30:25;-5.60;65.10
83553;DHT22;73510;50.866;5.420;2024-01-11T06:32:50;-5.60;65.10
83553;DHT22;73510;50.866;5.420;2024-01-11T06:35:16;-5.60;65.20
83553;DHT22;73510;50.866;5.420;2024-01-11T06:37:42;-5.60;66.00
83553;DHT22;73510;50.866;5.420;2024-01-11T06:40:07;-5.60;66.70
83553;DHT22;73510;50.866;5.420;2024-01-11T06:42:34;-5.60;66.70
83553;DHT22;73510;50.866;5.420;2024-01-11T06:45:00;-5.60;66.20
83553;DHT22;73510;50.866;5.420;2024-01-11T06:47:25;-5.60;66.20
83553;DHT22;73510;50.866;5.420;2024-01-11T06:49:51;-5.60;65.90
83553;DHT22;73510;50.866;5.420;2024-01-11T06:52:16;-5.60;65.80
83553;DHT22;73510;50.866;5.420;2024-01-11T06:54:42;-5.60;65.70
83553;DHT22;73510;50.866;5.420;2024-01-11T06:57:10;-5.60;65.80
83553;DHT22;73510;50.866;5.420;2024-01-11T06:59:36;-5.70;65.60
83553;DHT22;73510;50.866;5.420;2024-01-11T07:02:03;-5.70;66.10
83553;DHT22;73510;50.866;5.420;2024-01-11T07:04:29;-5.70;65.80
83553;DHT22;73510;50.866;5.420;2024-01-11T07:06:55;-5.70;65.70
83553;DHT22;73510;50.866;5.420;2024-01-11T07:09:20;-5.70;65.30
83553;DHT22;73510;50.866;5.420;2024-01-11T07:11:46;-5.70;66.10
83553;DHT22;73510;50.866;5.420;2024-01-11T07:14:12;-5.70;65.60
83553;DHT22;73510;50.866;5.420;2024-01-11T07:16:37;-5.70;65.60
83553;DHT22;73510;50.866;5.420;2024-01-11T07:19:03;-5.70;65.60
83553;DHT22;73510;50.866;5.420;2024-01-11T07:21:29;-5.70;65.40
83553;DHT22;73510;50.866;5.420;2024-01-11T07:23:57;-5.70;65.40
83553;DHT22;73510;50.866;5.420;2024-01-11T07:26:23;-5.70;65.50
83553;DHT22;73510;50.866;5.420;2024-01-11T07:28:49;-5.70;65.50
83553;DHT22;73510;50.866;5.420;2024-01-11T07:31:15;-5.80;65.70
83553;DHT22;73510;50.866;5.420;2024-01-11T07:33:42;-5.70;65.50
83553;DHT22;73510;50.866;5.420;2024-01-11T07:36:08;-5.70;65.30
83553;DHT22;73510;50.866;5.420;2024-01-11T07:38:34;-5.70;65.10
83553;DHT22;73510;50.866;5.420;2024-01-11T07:41:00;-5.70;65.10
83553;DHT22;73510;50.866;5.420;2024-01-11T07:43:27;-5.70;65.10
83553;DHT22;73510;50.866;5.420;2024-01-11T07:45:54;-5.80;65.00
83553;DHT22;73510;50.866;5.420;2024-01-11T07:48:22;-5.80;65.00
83553;DHT22;73510;50.866;5.420;2024-01-11T07:50:49;-5.80;65.00
83553;DHT22;73510;50.866;5.420;2024-01-11T07:53:14;-5.70;65.50
83553;DHT22;73510;50.866;5.420;2024-01-11T07:55:40;-5.70;65.10
83553;DHT22;73510;50.866;5.420;2024-01-11T07:58:06;-5.70;65.00
83553;DHT22;73510;50.866;5.420;2024-01-11T08:00:32;-5.70;65.00
83553;DHT22;73510;50.866;5.420;2024-01-11T08:03:00;-5.70;64.50
83553;DHT22;73510;50.866;5.420;2024-01-11T08:05:26;-5.70;64.50
83553;DHT22;73510;50.866;5.420;2024-01-11T08:07:51;-5.70;64.80
83553;DHT22;73510;50.866;5.420;2024-01-11T08:10:17;-5.60;64.80
83553;DHT22;73510;50.866;5.420;2024-01-11T08:12:43;-5.60;64.50
83553;DHT22;73510;50.866;5.420;2024-01-11T08:15:08;-5.60;64.70
83553;DHT22;73510;50.866;5.420;2024-01-11T08:17:39;-5.60;64.40
83553;DHT22;73510;50.866;5.420;2024-01-11T08:20:05;-5.60;64.70
83553;DHT22;73510;50.866;5.420;2024-01-11T08:22:34;-5.50;64.90
83553;DHT22;73510;50.866;5.420;2024-01-11T08:25:02;-5.50;65.00
83553;DHT22;73510;50.866;5.420;2024-01-11T08:27:31;-5.40;64.80
83553;DHT22;73510;50.866;5.420;2024-01-11T08:29:57;-5.40;64.80
83553;DHT22;73510;50.866;5.420;2024-01-11T08:32:23;-5.40;65.00
83553;DHT22;73510;50.866;5.420;2024-01-11T08:34:48;-5.40;65.20
83553;DHT22;73510;50.866;5.420;2024-01-11T08:37:14;-5.20;65.50
83553;DHT22;73510;50.866;5.420;2024-01-11T08:39:40;-5.20;65.30
83553;DHT22;73510;50.866;5.420;2024-01-11T08:42:06;-5.20;65.50
83553;DHT22;73510;50.866;5.420;2024-01-11T08:44:31;-5.10;65.20
83553;DHT22;73510;50.866;5.420;2024-01-11T08:46:57;-5.10;65.50
83553;DHT22;73510;50.866;5.420;2024-01-11T08:49:24;-5.00;65.50
83553;DHT22;73510;50.866;5.420;2024-01-11T08:51:50;-5.00;65.60
83553;DHT22;73510;50.866;5.420;2024-01-11T08:54:16;-4.90;65.40
83553;DHT22;73510;50.866;5.420;2024-01-11T08:56:42;-4.80;65.50
83553;DHT22;73510;50.866;5.420;2024-01-11T08:59:08;-4.80;65.70
83553;DHT22;73510;50.866;5.420;2024-01-11T09:01:37;-4.70;65.80
83553;DHT22;73510;50.866;5.420;2024-01-11T09:04:03;-4.60;65.70
83553;DHT22;73510;50.866;5.420;2024-01-11T09:06:30;-4.60;65.70
83553;DHT22;73510;50.866;5.420;2024-01-11T09:08:56;-4.60;65.80
83553;DHT22;73510;50.866;5.420;2024-01-11T09:11:22;-4.40;65.80
83553;DHT22;73510;50.866;5.420;2024-01-11T09:13:47;-4.40;65.90
83553;DHT22;73510;50.866;5.420;2024-01-11T09:16:16;-4.30;65.70
83553;DHT22;73510;50.866;5.420;2024-01-11T09:18:43;-4.30;65.60
83553;DHT22;73510;50.866;5.420;2024-01-11T09:21:10;-4.20;65.50
83553;DHT22;73510;50.866;5.420;2024-01-11T09:23:36;-4.20;65.20
83553;DHT22;73510;50.866;5.420;2024-01-11T09:26:02;-4.10;65.40
83553;DHT22;73510;50.866;5.420;2024-01-11T09:28:27;-4.10;65.10
83553;DHT22;73510;50.866;5.420;2024-01-11T09:30:53;-4.00;65.10
83553;DHT22;73510;50.866;5.420;2024-01-11T09:33:21;-4.00;65.00
83553;DHT22;73510;50.866;5.420;2024-01-11T09:35:47;-4.00;65.10
83553;DHT22;73510;50.866;5.420;2024-01-11T09:38:13;-3.90;65.30
83553;DHT22;73510;50.866;5.420;2024-01-11T09:40:38;-3.80;65.80
83553;DHT22;73510;50.866;5.420;2024-01-11T09:43:06;-3.80;65.70
83553;DHT22;73510;50.866;5.420;2024-01-11T09:45:32;-3.80;65.40
83553;DHT22;73510;50.866;5.420;2024-01-11T09:47:58;-3.70;65.00
83553;DHT22;73510;50.866;5.420;2024-01-11T09:50:24;-3.60;65.10
83553;DHT22;73510;50.866;5.420;2024-01-11T09:52:50;-3.60;65.40
83553;DHT22;73510;50.866;5.420;2024-01-11T09:55:17;-3.50;65.30
83553;DHT22;73510;50.866;5.420;2024-01-11T09:57:47;-3.50;64.70
83553;DHT22;73510;50.866;5.420;2024-01-11T10:00:16;-3.40;64.20
83553;DHT22;73510;50.866;5.420;2024-01-11T10:02:44;-3.30;64.60
83553;DHT22;73510;50.866;5.420;2024-01-11T10:05:11;-3.20;64.40
83553;DHT22;73510;50.866;5.420;2024-01-11T10:07:39;-3.20;64.60
83553;DHT22;73510;50.866;5.420;2024-01-11T10:10:06;-3.20;64.40
83553;DHT22;73510;50.866;5.420;2024-01-11T10:12:37;-3.10;64.30
83553;DHT22;73510;50.866;5.420;2024-01-11T10:15:08;-3.10;64.50
83553;DHT22;73510;50.866;5.420;2024-01-11T10:17:38;-3.00;64.10
83553;DHT22;73510;50.866;5.420;2024-01-11T10:20:06;-2.90;64.40
83553;DHT22;73510;50.866;5.420;2024-01-11T10:22:36;-2.90;64.00
83553;DHT22;73510;50.866;5.420;2024-01-11T10:25:12;-2.80;64.00
83553;DHT22;73510;50.866;5.420;2024-01-11T10:27:40;-2.80;63.70
83553;DHT22;73510;50.866;5.420;2024-01-11T10:30:13;-2.70;63.80
83553;DHT22;73510;50.866;5.420;2024-01-11T10:32:44;-2.70;63.80
83553;DHT22;73510;50.866;5.420;2024-01-11T10:35:10;-2.60;63.30
83553;DHT22;73510;50.866;5.420;2024-01-11T10:37:36;-2.60;63.40
83553;DHT22;73510;50.866;5.420;2024-01-11T10:40:06;-2.50;63.40
83553;DHT22;73510;50.866;5.420;2024-01-11T10:42:44;-2.50;63.50
83553;DHT22;73510;50.866;5.420;2024-01-11T10:45:18;-2.40;63.30
83553;DHT22;73510;50.866;5.420;2024-01-11T10:50:16;-2.30;63.00
83553;DHT22;73510;50.866;5.420;2024-01-11T10:53:04;-2.30;62.80
83553;DHT22;73510;50.866;5.420;2024-01-11T10:55:34;-2.20;62.90
83553;DHT22;73510;50.866;5.420;2024-01-11T10:58:01;-2.20;62.70
83553;DHT22;73510;50.866;5.420;2024-01-11T11:00:28;-2.10;63.00
83553;DHT22;73510;50.866;5.420;2024-01-11T11:02:55;-2.10;61.70
83553;DHT22;73510;50.866;5.420;2024-01-11T11:05:21;-2.10;61.90
83553;DHT22;73510;50.866;5.420;2024-01-11T11:07:51;-2.00;61.70
83553;DHT22;73510;50.866;5.420;2024-01-11T11:10:19;-1.90;61.80
83553;DHT22;73510;50.866;5.420;2024-01-11T11:12:45;-1.80;62.50
83553;DHT22;73510;50.866;5.420;2024-01-11T11:15:12;-1.80;61.40
83553;DHT22;73510;50.866;5.420;2024-01-11T11:17:39;-1.70;61.60
83553;DHT22;73510;50.866;5.420;2024-01-11T11:20:06;-1.70;61.70
83553;DHT22;73510;50.866;5.420;2024-01-11T11:22:36;-1.70;60.80
83553;DHT22;73510;50.866;5.420;2024-01-11T11:25:09;-1.60;60.90
83553;DHT22;73510;50.866;5.420;2024-01-11T11:27:36;-1.50;60.70
83553;DHT22;73510;50.866;5.420;2024-01-11T11:30:03;-1.50;60.50
83553;DHT22;73510;50.866;5.420;2024-01-11T11:32:36;-1.40;60.70
83553;DHT22;73510;50.866;5.420;2024-01-11T11:35:04;-1.30;59.90
83553;DHT22;73510;50.866;5.420;2024-01-11T11:37:30;-1.30;59.60
83553;DHT22;73510;50.866;5.420;2024-01-11T11:39:58;-1.30;59.80
83553;DHT22;73510;50.866;5.420;2024-01-11T11:42:23;-1.10;60.10
83553;DHT22;73510;50.866;5.420;2024-01-11T11:44:50;-1.10;59.60
83553;DHT22;73510;50.866;5.420;2024-01-11T11:47:21;-1.10;59.60
83553;DHT22;73510;50.866;5.420;2024-01-11T11:52:34;-0.90;59.30
83553;DHT22;73510;50.866;5.420;2024-01-11T11:55:03;-0.90;59.30
83553;DHT22;73510;50.866;5.420;2024-01-11T11:57:29;-0.70;59.60
83553;DHT22;73510;50.866;5.420;2024-01-11T11:59:56;-0.70;60.00
83553;DHT22;73510;50.866;5.420;2024-01-11T12:02:25;-0.70;60.00
83553;DHT22;73510;50.866;5.420;2024-01-11T12:04:51;-0.60;59.20
83553;DHT22;73510;50.866;5.420;2024-01-11T12:07:18;-0.50;59.30
83553;DHT22;73510;50.866;5.420;2024-01-11T12:09:46;-0.50;59.60
83553;DHT22;73510;50.866;5.420;2024-01-11T12:12:12;-0.40;59.40
83553;DHT22;73510;50.866;5.420;2024-01-11T12:14:38;-0.40;58.50
83553;DHT22;73510;50.866;5.420;2024-01-11T12:17:06;-0.30;58.20
83553;DHT22;73510;50.866;5.420;2024-01-11T12:19:31;-0.30;58.20
83553;DHT22;73510;50.866;5.420;2024-01-11T12:21:58;-0.20;58.00
83553;DHT22;73510;50.866;5.420;2024-01-11T12:24:24;-0.20;57.30
83553;DHT22;73510;50.866;5.420;2024-01-11T12:26:50;-0.10;57.30
83553;DHT22;73510;50.866;5.420;2024-01-11T12:29:19;-0.10;57.60
83553;DHT22;73510;50.866;5.420;2024-01-11T12:31:45;0.00;57.10
83553;DHT22;73510;50.866;5.420;2024-01-11T12:34:14;0.00;57.70
83553;DHT22;73510;50.866;5.420;2024-01-11T12:36:40;0.00;58.00
83553;DHT22;73510;50.866;5.420;2024-01-11T12:39:06;0.00;58.20
83553;DHT22;73510;50.866;5.420;2024-01-11T12:41:34;0.10;57.10
83553;DHT22;73510;50.866;5.420;2024-01-11T12:44:01;0.20;57.00
83553;DHT22;73510;50.866;5.420;2024-01-11T12:46:27;0.20;57.50
83553;DHT22;73510;50.866;5.420;2024-01-11T12:48:53;0.20;57.70
83553;DHT22;73510;50.866;5.420;2024-01-11T12:51:19;0.20;57.50
83553;DHT22;73510;50.866;5.420;2024-01-11T12:53:49;0.30;57.10
83553;DHT22;73510;50.866;5.420;2024-01-11T12:56:15;0.30;57.00
83553;DHT22;73510;50.866;5.420;2024-01-11T12:58:41;0.30;56.70
83553;DHT22;73510;50.866;5.420;2024-01-11T13:01:08;0.30;56.80
83553;DHT22;73510;50.866;5.420;2024-01-11T13:03:38;0.30;56.90
83553;DHT22;73510;50.866;5.420;2024-01-11T13:06:04;0.40;56.50
83553;DHT22;73510;50.866;5.420;2024-01-11T13:08:33;0.40;57.00
83553;DHT22;73510;50.866;5.420;2024-01-11T13:11:02;0.40;56.60
83553;DHT22;73510;50.866;5.420;2024-01-11T13:13:33;0.40;55.90
83553;DHT22;73510;50.866;5.420;2024-01-11T13:15:58;0.40;56.00
83553;DHT22;73510;50.866;5.420;2024-01-11T13:18:24;0.50;56.30
83553;DHT22;73510;50.866;5.420;2024-01-11T13:20:50;0.50;55.90
83553;DHT22;73510;50.866;5.420;2024-01-11T13:23:19;0.50;55.90
83553;DHT22;73510;50.866;5.420;2024-01-11T13:25:47;0.50;56.00
83553;DHT22;73510;50.866;5.420;2024-01-11T13:28:14;0.60;56.20
83553;DHT22;73510;50.866;5.420;2024-01-11T13:30:41;0.50;55.80
83553;DHT22;73510;50.866;5.420;2024-01-11T13:33:08;0.50;55.80
83553;DHT22;73510;50.866;5.420;2024-01-11T13:35:38;0.60;55.70
83553;DHT22;73510;50.866;5.420;2024-01-11T13:38:04;0.60;55.70
83553;DHT22;73510;50.866;5.420;2024-01-11T13:40:30;0.60;56.10
83553;DHT22;73510;50.866;5.420;2024-01-11T13:42:57;0.60;55.80
83553;DHT22;73510;50.866;5.420;2024-01-11T13:45:24;0.60;55.90
83553;DHT22;73510;50.866;5.420;2024-01-11T13:47:51;0.60;55.50
83553;DHT22;73510;50.866;5.420;2024-01-11T13:50:19;0.60;55.60
83553;DHT22;73510;50.866;5.420;2024-01-11T13:52:45;0.60;55.50
83553;DHT22;73510;50.866;5.420;2024-01-11T13:55:12;0.70;54.90
83553;DHT22;73510;50.866;5.420;2024-01-11T13:57:38;0.70;55.30
83553;DHT22;73510;50.866;5.420;2024-01-11T14:00:04;0.80;55.30
83553;DHT22;73510;50.866;5.420;2024-01-11T14:02:32;0.80;55.30
83553;DHT22;73510;50.866;5.420;2024-01-11T14:04:58;0.80;55.60
83553;DHT22;73510;50.866;5.420;2024-01-11T14:07:24;0.80;55.30
83553;DHT22;73510;50.866;5.420;2024-01-11T14:09:50;0.80;54.90
83553;DHT22;73510;50.866;5.420;2024-01-11T14:12:17;0.80;55.20
83553;DHT22;73510;50.866;5.420;2024-01-11T14:14:43;0.80;54.40
83553;DHT22;73510;50.866;5.420;2024-01-11T14:17:09;0.80;54.50
83553;DHT22;73510;50.866;5.420;2024-01-11T14:19:35;0.80;54.90
83553;DHT22;73510;50.866;5.420;2024-01-11T14:22:00;0.90;54.90
83553;DHT22;73510;50.866;5.420;2024-01-11T14:24:27;0.90;55.30
83553;DHT22;73510;50.866;5.420;2024-01-11T14:26:53;0.90;55.10
83553;DHT22;73510;50.866;5.420;2024-01-11T14:29:19;0.90;55.20
83553;DHT22;73510;50.866;5.420;2024-01-11T14:31:45;0.80;55.30
83553;DHT22;73510;50.866;5.420;2024-01-11T14:34:11;0.80;55.20
83553;DHT22;73510;50.866;5.420;2024-01-11T14:36:37;0.90;55.10
83553;DHT22;73510;50.866;5.420;2024-01-11T14:39:03;0.90;55.30
83553;DHT22;73510;50.866;5.420;2024-01-11T14:41:32;0.80;55.20
83553;DHT22;73510;50.866;5.420;2024-01-11T14:43:58;0.90;55.30
83553;DHT22;73510;50.866;5.420;2024-01-11T14:46:26;0.90;55.40
83553;DHT22;73510;50.866;5.420;2024-01-11T14:48:52;0.90;55.60
83553;DHT22;73510;50.866;5.420;2024-01-11T14:51:18;0.90;55.50
83553;DHT22;73510;50.866;5.420;2024-01-11T14:53:43;0.80;55.50
83553;DHT22;73510;50.866;5.420;2024-01-11T14:56:09;0.80;55.80
83553;DHT22;73510;50.866;5.420;2024-01-11T14:58:36;0.80;55.60
83553;DHT22;73510;50.866;5.420;2024-01-11T15:01:02;0.80;55.60
83553;DHT22;73510;50.866;5.420;2024-01-11T15:03:30;0.80;55.50
83553;DHT22;73510;50.866;5.420;2024-01-11T15:05:56;0.80;55.50
83553;DHT22;73510;50.866;5.420;2024-01-11T15:08:21;0.70;55.50
83553;DHT22;73510;50.866;5.420;2024-01-11T15:10:48;0.70;55.50
83553;DHT22;73510;50.866;5.420;2024-01-11T15:13:14;0.60;55.30
83553;DHT22;73510;50.866;5.420;2024-01-11T15:15:40;0.70;55.60
83553;DHT22;73510;50.866;5.420;2024-01-11T15:18:06;0.60;55.30
83553;DHT22;73510;50.866;5.420;2024-01-11T15:20:31;0.60;55.60
83553;DHT22;73510;50.866;5.420;2024-01-11T15:22:57;0.60;55.50
83553;DHT22;73510;50.866;5.420;2024-01-11T15:25:23;0.60;55.50
83553;DHT22;73510;50.866;5.420;2024-01-11T15:27:53;0.60;55.50
83553;DHT22;73510;50.866;5.420;2024-01-11T15:30:18;0.50;55.40
83553;DHT22;73510;50.866;5.420;2024-01-11T15:32:44;0.50;55.50
83553;DHT22;73510;50.866;5.420;2024-01-11T15:35:10;0.50;55.50